Minneapolis, MN (55401)

4:01 PM CST on December 09, 2016 (GMT -0600)
RBC Plaza Weather | | Change Station

Elev 853 ft 44.98 °N, 93.27 °W | Updated 15 seconds ago

Overcast
Overcast
14.7 °F
Feels Like 15 °F
N
2.0
Wind Variable Wind from NNE

Today
High -- | Low -- °F
--% Chance of Precip.
Yesterday
High -- | Low -- °F
Precip. -- in
Pressure 30.55 in
Visibility 10.0 miles
Clouds Overcast 2500 ft
Windchill 15 °F
Dew Point 8 °F
Humidity 76%
Rainfall 0.00 in
Snow Depth Not available.
7:39 AM 4:31 PM
Waxing Gibbous, 77% visible
METAR KMIC 092153Z 25007KT 10SM OVC025 M08/M15 A3049 RMK AO2 SLP343 T10831150
Pressure 30.55 in
Visibility 10.0 miles
Clouds Overcast 2500 ft
Windchill 15 °F
Dew Point 8 °F
Humidity 76%
Rainfall 0.00 in
Snow Depth Not available.
7:39 AM 4:31 PM
Waxing Gibbous, 77% visible
METAR KMIC 092153Z 25007KT 10SM OVC025 M08/M15 A3049 RMK AO2 SLP343 T10831150

10-Day Weather Forecast

Almanac

Astronomy

Dec. 09, 2016 Rise Set
Actual Time
Civil Twilight
Nautical Twilight
Astronomical Twilight
Moon
Length of Visible Light
Length of Day
Tomorrow will be .
, % of the Moon is Illuminated

Today's Extremes

State Highs State Lows

Community

WunderPhotos

Upload Photos

1,956,535 photos uploaded!

WunderBlog® & News

Nearby

Air Quality

  Air Quality AQ Index Pollutant
Not available.

Snow Depth

Station Depth Elevation

Earthquake Activity

City Distance Mag. Time & Date
Minimum magnitude displayed is 2.5.

Coastal Water Temperatures

Place Temperature

Stations

Nearby Weather Stations

Station Location Temp. Windchill Dew Point Humidity Wind Precip. Elev Updated Type
                   

Watches & Warnings

There are currently no watches in effect.